createdAt,value
2018-09-22T00:00:19.066Z,14.50
2018-09-22T00:02:48.269Z,14.40
2018-09-22T00:05:17.221Z,14.40
2018-09-22T00:07:46.302Z,14.30
2018-09-22T00:10:15.081Z,14.30
2018-09-22T00:12:44.933Z,14.30
2018-09-22T00:15:13.869Z,14.30
2018-09-22T00:17:42.620Z,14.20
2018-09-22T00:20:11.407Z,14.30
2018-09-22T00:22:40.528Z,14.30
2018-09-22T00:25:09.367Z,14.30
2018-09-22T00:27:38.167Z,14.30
2018-09-22T00:30:07.125Z,14.40
2018-09-22T00:32:36.225Z,14.40
2018-09-22T00:35:05.235Z,14.40
2018-09-22T00:37:34.331Z,14.30
2018-09-22T00:40:03.359Z,14.20
2018-09-22T00:42:32.457Z,14.30
2018-09-22T00:45:01.685Z,14.20
2018-09-22T00:47:30.617Z,14.10
2018-09-22T00:49:59.511Z,14.10
2018-09-22T00:52:28.666Z,14.10
2018-09-22T00:54:57.565Z,14.20
2018-09-22T00:57:26.469Z,14.10
2018-09-22T00:59:55.420Z,14.10
2018-09-22T01:02:24.190Z,14.00
2018-09-22T01:04:53.249Z,13.90
2018-09-22T01:07:22.478Z,13.90
2018-09-22T01:09:51.895Z,14.00
2018-09-22T01:12:30.677Z,14.00
2018-09-22T01:15:04.420Z,13.80
2018-09-22T01:17:38.917Z,13.90
2018-09-22T01:20:12.881Z,13.80
2018-09-22T01:22:50.299Z,13.80
2018-09-22T01:25:24.401Z,13.70
2018-09-22T01:27:57.928Z,13.70
2018-09-22T01:30:34.426Z,13.70
2018-09-22T01:33:07.755Z,13.70
2018-09-22T01:35:44.721Z,13.70
2018-09-22T01:38:18.789Z,13.70
2018-09-22T01:40:55.118Z,13.60
2018-09-22T01:43:30.880Z,13.60
2018-09-22T01:46:05.261Z,13.70
2018-09-22T01:48:41.105Z,13.70
2018-09-22T01:51:16.375Z,13.60
2018-09-22T01:53:50.994Z,13.60
2018-09-22T01:56:26.356Z,13.60
2018-09-22T01:58:59.768Z,13.50
2018-09-22T02:01:34.372Z,13.50
2018-09-22T02:04:11.236Z,13.40
2018-09-22T02:06:44.700Z,13.40
2018-09-22T02:09:16.928Z,13.40
2018-09-22T02:11:49.741Z,13.30
2018-09-22T02:14:22.703Z,13.30
2018-09-22T02:16:55.166Z,13.40
2018-09-22T02:19:27.483Z,13.40
2018-09-22T02:21:59.832Z,13.30
2018-09-22T02:24:31.680Z,13.30
2018-09-22T02:27:05.778Z,13.20
2018-09-22T02:29:45.221Z,13.30
2018-09-22T02:32:20.566Z,13.30
2018-09-22T02:34:54.596Z,13.30
2018-09-22T02:37:33.039Z,13.30
2018-09-22T02:40:09.099Z,13.20
2018-09-22T02:42:42.830Z,13.20
2018-09-22T02:45:17.711Z,13.20
2018-09-22T02:47:51.057Z,13.10
2018-09-22T02:50:25.947Z,13.20
2018-09-22T02:53:01.149Z,13.10
2018-09-22T02:55:34.437Z,13.20
2018-09-22T02:58:07.990Z,13.20
2018-09-22T03:00:41.653Z,13.20
2018-09-22T03:03:15.415Z,13.10
2018-09-22T03:05:49.059Z,13.10
2018-09-22T03:08:23.472Z,13.10
2018-09-22T03:10:57.836Z,13.10
2018-09-22T03:13:31.300Z,13.10
2018-09-22T03:16:05.972Z,13.10
2018-09-22T03:18:40.527Z,13.10
2018-09-22T03:21:14.849Z,13.10
2018-09-22T03:23:49.371Z,13.00
2018-09-22T03:26:21.918Z,13.10
2018-09-22T03:28:56.251Z,13.00
2018-09-22T03:31:28.993Z,13.00
2018-09-22T03:33:57.925Z,13.00
2018-09-22T03:36:26.799Z,13.00
2018-09-22T03:38:55.729Z,13.00
2018-09-22T03:41:24.888Z,13.00
2018-09-22T03:43:53.932Z,13.10
2018-09-22T03:46:22.828Z,13.00
2018-09-22T03:48:51.598Z,13.10
2018-09-22T03:51:20.405Z,13.10
2018-09-22T03:53:49.530Z,13.10
2018-09-22T03:56:18.782Z,13.00
2018-09-22T03:58:47.769Z,13.00
2018-09-22T04:01:16.915Z,13.00
2018-09-22T04:03:45.601Z,13.00
2018-09-22T04:06:14.368Z,13.00
2018-09-22T04:08:43.288Z,13.00
2018-09-22T04:11:12.186Z,12.90
2018-09-22T04:13:41.147Z,12.90
2018-09-22T04:16:09.884Z,12.90
2018-09-22T04:18:38.753Z,12.80
2018-09-22T04:21:07.743Z,12.80
2018-09-22T04:23:36.582Z,12.80
2018-09-22T04:26:05.439Z,12.80
2018-09-22T04:28:34.615Z,12.80
2018-09-22T04:31:03.539Z,12.90
2018-09-22T04:33:32.483Z,12.90
2018-09-22T04:36:01.321Z,12.80
2018-09-22T04:38:30.632Z,12.80
2018-09-22T04:40:59.650Z,12.90
2018-09-22T04:43:28.808Z,12.80
2018-09-22T04:45:57.642Z,12.80
2018-09-22T04:48:26.395Z,12.70
2018-09-22T04:50:55.407Z,12.80
2018-09-22T04:53:24.328Z,12.80
2018-09-22T04:55:53.293Z,12.70
2018-09-22T04:58:22.496Z,12.60
2018-09-22T05:00:51.301Z,12.70
2018-09-22T05:03:20.309Z,12.60
2018-09-22T05:05:49.092Z,12.60
2018-09-22T05:08:17.999Z,12.60
2018-09-22T05:10:46.842Z,12.60
2018-09-22T05:13:15.704Z,12.60
2018-09-22T05:15:44.547Z,12.50
2018-09-22T05:18:13.344Z,12.50
2018-09-22T05:20:42.145Z,12.60
2018-09-22T05:23:10.940Z,12.70
2018-09-22T05:25:39.690Z,12.70
2018-09-22T05:28:08.490Z,12.70
2018-09-22T05:30:37.227Z,12.70
2018-09-22T05:33:06.065Z,12.80
2018-09-22T05:35:34.769Z,12.80
2018-09-22T05:38:03.945Z,12.70
2018-09-22T05:40:32.765Z,12.70
2018-09-22T05:43:01.554Z,12.70
2018-09-22T05:45:30.425Z,12.60
2018-09-22T05:47:59.612Z,12.70
2018-09-22T05:50:28.460Z,12.70
2018-09-22T05:52:57.234Z,12.70
2018-09-22T05:55:26.419Z,12.80
2018-09-22T05:57:55.152Z,12.90
2018-09-22T06:00:24.171Z,12.90
2018-09-22T06:02:53.185Z,13.00
2018-09-22T06:05:22.034Z,13.00
2018-09-22T06:07:50.933Z,12.90
2018-09-22T06:10:19.870Z,12.90
2018-09-22T06:12:48.977Z,13.00
2018-09-22T06:15:17.899Z,13.10
2018-09-22T06:17:46.804Z,13.10
2018-09-22T06:20:15.952Z,13.30
2018-09-22T06:22:45.334Z,13.30
2018-09-22T06:25:14.157Z,13.30
2018-09-22T06:27:43.358Z,13.30
2018-09-22T06:30:12.257Z,13.30
2018-09-22T06:32:41.129Z,13.30
2018-09-22T06:35:09.992Z,13.40
2018-09-22T06:37:39.624Z,13.50
2018-09-22T06:40:08.595Z,13.60
2018-09-22T06:42:37.675Z,13.60
2018-09-22T06:45:07.087Z,13.60
2018-09-22T06:47:36.049Z,13.60
2018-09-22T06:50:05.011Z,13.60
2018-09-22T06:52:33.914Z,13.60
2018-09-22T06:55:02.902Z,13.70
2018-09-22T06:57:32.305Z,13.70
2018-09-22T07:00:01.440Z,13.80
2018-09-22T07:02:30.421Z,13.90
2018-09-22T07:04:59.231Z,13.90
2018-09-22T07:07:28.465Z,14.00
2018-09-22T07:09:57.270Z,14.10
2018-09-22T07:12:27.361Z,14.30
2018-09-22T07:14:56.746Z,14.30
2018-09-22T07:17:25.873Z,14.30
2018-09-22T07:19:55.263Z,14.30
2018-09-22T07:22:29.429Z,14.70
2018-09-22T07:24:58.217Z,14.70
2018-09-22T07:27:27.537Z,14.80
2018-09-22T07:29:56.928Z,14.80
2018-09-22T07:32:25.914Z,14.70
2018-09-22T07:34:55.501Z,14.70
2018-09-22T07:37:24.286Z,14.70
2018-09-22T07:39:54.024Z,14.90
2018-09-22T07:42:23.189Z,14.90
2018-09-22T07:44:52.310Z,15.10
2018-09-22T07:47:21.258Z,15.00
2018-09-22T07:49:50.517Z,15.00
2018-09-22T07:52:19.641Z,15.00
2018-09-22T07:54:49.412Z,15.20
2018-09-22T07:57:18.542Z,15.30
2018-09-22T07:59:47.469Z,15.40
2018-09-22T08:02:16.218Z,15.60
2018-09-22T08:04:45.206Z,15.50
2018-09-22T08:07:14.221Z,15.60
2018-09-22T08:09:43.444Z,15.80
2018-09-22T08:12:12.857Z,15.90
2018-09-22T08:14:42.170Z,16.10
2018-09-22T08:17:11.547Z,16.30
2018-09-22T08:19:40.649Z,16.50
2018-09-22T08:22:09.501Z,17.10
2018-09-22T08:24:38.730Z,17.90
2018-09-22T08:27:07.860Z,17.90
2018-09-22T08:29:36.892Z,18.20
2018-09-22T08:32:06.539Z,17.80
2018-09-22T08:34:35.811Z,17.80
2018-09-22T08:37:05.285Z,18.30
2018-09-22T08:39:34.144Z,18.80
2018-09-22T08:42:03.628Z,19.00
2018-09-22T08:44:32.661Z,19.30
2018-09-22T08:47:02.127Z,19.00
2018-09-22T08:49:31.420Z,18.60
2018-09-22T08:52:00.474Z,18.80
2018-09-22T08:54:29.859Z,19.00
2018-09-22T08:56:58.965Z,19.30
2018-09-22T08:59:27.998Z,19.80
2018-09-22T09:01:57.088Z,19.80
2018-09-22T09:04:26.419Z,20.70
2018-09-22T09:06:55.320Z,21.00
2018-09-22T09:09:24.077Z,21.80
2018-09-22T09:11:53.256Z,21.50
2018-09-22T09:14:22.622Z,21.40
2018-09-22T09:16:51.594Z,21.90
2018-09-22T09:19:20.549Z,22.60
2018-09-22T09:21:49.389Z,24.00
2018-09-22T09:24:18.582Z,24.80
2018-09-22T09:26:47.878Z,23.70
2018-09-22T09:29:17.095Z,23.30
2018-09-22T09:31:46.220Z,23.40
2018-09-22T09:34:15.276Z,23.40
2018-09-22T09:36:44.533Z,22.70
2018-09-22T09:39:13.815Z,23.80
2018-09-22T09:41:43.059Z,23.90
2018-09-22T09:44:12.171Z,23.60
2018-09-22T09:46:41.204Z,23.80
2018-09-22T09:49:10.068Z,23.30
2018-09-22T09:51:39.001Z,23.30
2018-09-22T09:54:08.249Z,22.90
2018-09-22T09:56:37.161Z,22.20
2018-09-22T09:59:06.188Z,21.60
2018-09-22T10:01:35.177Z,21.10
2018-09-22T10:04:04.070Z,21.40
2018-09-22T10:06:33.009Z,21.70
2018-09-22T10:09:02.299Z,22.50
2018-09-22T10:11:31.366Z,23.30
2018-09-22T10:14:00.119Z,24.50
2018-09-22T10:16:29.329Z,25.50
2018-09-22T10:18:58.457Z,24.40
2018-09-22T10:21:27.256Z,25.00
2018-09-22T10:23:56.094Z,25.50
2018-09-22T10:26:25.350Z,25.30
2018-09-22T10:28:54.436Z,25.80
2018-09-22T10:31:23.968Z,25.60
2018-09-22T10:33:52.875Z,28.60
2018-09-22T10:36:21.762Z,32.00
2018-09-22T10:38:50.548Z,34.20
2018-09-22T10:41:19.272Z,33.00
2018-09-22T10:43:48.664Z,31.80
2018-09-22T10:46:17.568Z,31.80
2018-09-22T10:48:46.612Z,33.90
2018-09-22T10:51:15.497Z,33.00
2018-09-22T10:53:44.318Z,32.80
2018-09-22T10:56:13.149Z,31.70
2018-09-22T10:58:41.850Z,30.30
2018-09-22T11:01:10.694Z,31.90
2018-09-22T11:03:39.717Z,32.60
2018-09-22T11:06:08.715Z,32.90
2018-09-22T11:08:37.526Z,33.50
2018-09-22T11:11:06.561Z,33.90
2018-09-22T11:13:35.487Z,35.20
2018-09-22T11:16:04.580Z,36.90
2018-09-22T11:18:33.479Z,34.80
2018-09-22T11:21:02.289Z,32.60
2018-09-22T11:23:31.317Z,29.50
2018-09-22T11:26:00.261Z,27.30
2018-09-22T11:28:28.996Z,27.60
2018-09-22T11:30:57.785Z,30.20
2018-09-22T11:33:26.510Z,28.50
2018-09-22T11:35:55.515Z,25.90
2018-09-22T11:38:24.376Z,24.30
2018-09-22T11:40:53.300Z,24.00
2018-09-22T11:43:22.278Z,23.70
2018-09-22T11:45:51.144Z,23.60
2018-09-22T11:48:20.117Z,22.50
2018-09-22T11:50:48.971Z,21.70
2018-09-22T11:53:17.850Z,21.20
2018-09-22T11:55:46.945Z,20.80
2018-09-22T11:58:15.830Z,20.90
2018-09-22T12:00:44.730Z,20.90
2018-09-22T12:03:13.631Z,21.10
2018-09-22T12:05:42.471Z,21.40
2018-09-22T12:08:11.656Z,21.30
2018-09-22T12:10:41.060Z,21.30
2018-09-22T12:13:09.833Z,21.20
2018-09-22T12:15:38.549Z,21.20
2018-09-22T12:18:07.357Z,21.20
2018-09-22T12:20:36.502Z,21.10
2018-09-22T12:23:05.527Z,20.90
2018-09-22T12:25:34.445Z,21.00
2018-09-22T12:28:03.309Z,21.00
2018-09-22T12:30:32.189Z,21.00
2018-09-22T12:33:00.879Z,20.60
2018-09-22T12:35:29.720Z,20.20
2018-09-22T12:37:58.747Z,20.20
2018-09-22T12:40:27.761Z,20.10
2018-09-22T12:42:56.743Z,20.30
2018-09-22T12:45:25.846Z,20.20
2018-09-22T12:47:54.658Z,20.20
2018-09-22T12:50:23.895Z,20.20
2018-09-22T12:52:52.732Z,20.10
2018-09-22T12:55:21.856Z,20.20
2018-09-22T12:57:50.695Z,20.10
2018-09-22T13:00:19.523Z,20.00
2018-09-22T13:02:48.720Z,20.00
2018-09-22T13:05:17.506Z,20.10
2018-09-22T13:07:46.401Z,20.40
2018-09-22T13:10:15.357Z,20.80
2018-09-22T13:12:44.239Z,20.70
2018-09-22T13:15:13.250Z,20.40
2018-09-22T13:17:42.197Z,20.30
2018-09-22T13:20:11.163Z,20.40
2018-09-22T13:22:40.469Z,20.50
2018-09-22T13:25:09.430Z,20.60
2018-09-22T13:27:38.451Z,20.90
2018-09-22T13:30:07.241Z,21.20
2018-09-22T13:32:36.046Z,21.30
2018-09-22T13:35:05.375Z,21.20
2018-09-22T13:37:34.292Z,21.10
2018-09-22T13:40:03.414Z,21.10
2018-09-22T13:42:32.334Z,21.10
2018-09-22T13:45:01.083Z,20.90
2018-09-22T13:47:29.882Z,20.90
2018-09-22T13:49:58.826Z,21.10
2018-09-22T13:52:27.529Z,21.40
2018-09-22T13:54:56.534Z,21.50
2018-09-22T13:57:25.453Z,21.30
2018-09-22T13:59:54.537Z,21.20
2018-09-22T14:02:23.603Z,21.20
2018-09-22T14:04:52.346Z,21.20
2018-09-22T14:07:21.262Z,20.80
2018-09-22T14:09:49.980Z,20.50
2018-09-22T14:12:18.986Z,20.90
2018-09-22T14:14:47.857Z,21.10
2018-09-22T14:17:16.982Z,21.10
2018-09-22T14:19:45.884Z,21.10
2018-09-22T14:22:14.857Z,21.10
2018-09-22T14:24:43.879Z,20.80
2018-09-22T14:27:13.353Z,20.70
2018-09-22T14:29:42.119Z,20.60
2018-09-22T14:32:11.136Z,20.60
2018-09-22T14:34:40.146Z,20.50
2018-09-22T14:37:09.781Z,20.40
2018-09-22T14:39:38.521Z,20.30
2018-09-22T14:42:07.402Z,20.50
2018-09-22T14:44:36.479Z,20.40
2018-09-22T14:47:05.490Z,20.20
2018-09-22T14:49:34.820Z,20.20
2018-09-22T14:52:03.864Z,20.20
2018-09-22T14:54:32.965Z,20.10
2018-09-22T14:57:01.777Z,20.10
2018-09-22T14:59:31.001Z,20.00
2018-09-22T15:01:59.826Z,19.80
2018-09-22T15:04:28.790Z,19.70
2018-09-22T15:06:58.096Z,19.40
2018-09-22T15:09:27.030Z,19.40
2018-09-22T15:11:56.059Z,19.40
2018-09-22T15:14:25.566Z,19.50
2018-09-22T15:16:54.322Z,19.50
2018-09-22T15:19:23.274Z,19.50
2018-09-22T15:21:52.096Z,19.50
2018-09-22T15:24:21.994Z,19.50
2018-09-22T15:26:50.785Z,19.40
2018-09-22T15:29:19.831Z,19.20
2018-09-22T15:31:48.859Z,19.10
2018-09-22T15:34:17.932Z,19.00
2018-09-22T15:36:47.068Z,19.00
2018-09-22T15:39:16.032Z,18.90
2018-09-22T15:41:44.873Z,19.00
2018-09-22T15:44:13.835Z,19.00
2018-09-22T15:46:42.676Z,18.90
2018-09-22T15:49:11.628Z,18.80
2018-09-22T15:51:40.584Z,18.70
2018-09-22T15:54:09.976Z,18.60
2018-09-22T15:56:39.323Z,18.70
2018-09-22T15:59:08.303Z,18.70
2018-09-22T16:01:37.304Z,18.80
2018-09-22T16:04:06.148Z,18.80
2018-09-22T16:06:35.423Z,18.80
2018-09-22T16:09:05.509Z,18.80
2018-09-22T16:11:34.537Z,18.80
2018-09-22T16:14:03.741Z,18.80
2018-09-22T16:16:32.708Z,18.90
2018-09-22T16:19:01.939Z,18.80
2018-09-22T16:21:31.228Z,18.70
2018-09-22T16:24:00.736Z,18.70
2018-09-22T16:26:29.823Z,18.60
2018-09-22T16:28:59.086Z,18.60
2018-09-22T16:31:27.868Z,18.40
2018-09-22T16:33:56.741Z,18.40
2018-09-22T16:36:26.009Z,18.40
2018-09-22T16:38:54.798Z,18.40
2018-09-22T16:41:23.639Z,18.40
2018-09-22T16:43:52.438Z,18.40
2018-09-22T16:46:21.239Z,18.30
2018-09-22T16:48:50.591Z,18.20
2018-09-22T16:51:19.384Z,18.30
2018-09-22T16:53:48.310Z,18.20
2018-09-22T16:56:17.578Z,18.10
2018-09-22T16:58:46.567Z,18.10
2018-09-22T17:01:15.374Z,18.10
2018-09-22T17:03:44.245Z,18.10
2018-09-22T17:06:13.010Z,18.10
2018-09-22T17:08:41.830Z,18.10
2018-09-22T17:11:11.028Z,18.10
2018-09-22T17:13:39.914Z,18.00
2018-09-22T17:16:09.185Z,17.90
2018-09-22T17:18:38.166Z,18.00
2018-09-22T17:21:07.251Z,18.00
2018-09-22T17:23:36.534Z,18.00
2018-09-22T17:26:05.821Z,18.00
2018-09-22T17:28:35.169Z,17.90
2018-09-22T17:31:04.332Z,17.90
2018-09-22T17:33:33.265Z,17.80
2018-09-22T17:36:01.997Z,17.90
2018-09-22T17:38:31.546Z,17.80
2018-09-22T17:41:00.468Z,17.90
2018-09-22T17:43:29.654Z,17.80
2018-09-22T17:45:58.602Z,17.80
2018-09-22T17:48:27.593Z,17.90
2018-09-22T17:50:56.773Z,17.90
2018-09-22T17:53:26.000Z,17.70
2018-09-22T17:55:55.058Z,17.70
2018-09-22T17:58:24.239Z,17.70
2018-09-22T18:00:53.363Z,17.80
2018-09-22T18:03:22.506Z,17.80
2018-09-22T18:05:51.662Z,17.80
2018-09-22T18:08:20.583Z,17.80
2018-09-22T18:10:49.513Z,17.70
2018-09-22T18:13:18.268Z,17.60
2018-09-22T18:15:47.270Z,17.50
2018-09-22T18:18:16.157Z,17.40
2018-09-22T18:20:45.280Z,17.40
2018-09-22T18:23:14.422Z,17.30
2018-09-22T18:25:43.577Z,17.30
2018-09-22T18:28:12.568Z,17.20
2018-09-22T18:30:41.354Z,17.10
2018-09-22T18:33:10.381Z,17.10
2018-09-22T18:35:39.615Z,17.00
2018-09-22T18:38:08.689Z,17.00
2018-09-22T18:40:37.634Z,17.00
2018-09-22T18:43:06.567Z,16.90
2018-09-22T18:45:35.613Z,17.00
2018-09-22T18:48:04.493Z,16.90
2018-09-22T18:50:33.522Z,16.80
2018-09-22T18:53:02.743Z,16.90
2018-09-22T18:55:32.333Z,16.90
2018-09-22T18:58:01.350Z,16.80
2018-09-22T19:00:35.088Z,16.80
2018-09-22T19:03:04.116Z,16.80
2018-09-22T19:05:33.390Z,16.70
2018-09-22T19:08:02.471Z,16.80
2018-09-22T19:10:31.473Z,16.80
2018-09-22T19:13:01.528Z,16.80
2018-09-22T19:15:38.708Z,16.80
2018-09-22T19:18:14.978Z,16.70
2018-09-22T19:20:50.417Z,16.60
2018-09-22T19:23:25.155Z,16.60
2018-09-22T19:25:58.102Z,16.60
2018-09-22T19:28:34.549Z,16.50
2018-09-22T19:31:07.837Z,16.60
2018-09-22T19:33:40.761Z,16.60
2018-09-22T19:36:16.078Z,16.50
2018-09-22T19:38:53.867Z,16.50
2018-09-22T19:42:26.692Z,16.60
2018-09-22T19:45:01.217Z,16.60
2018-09-22T19:47:34.874Z,16.50
2018-09-22T19:50:06.521Z,16.50
2018-09-22T19:52:43.679Z,16.40
2018-09-22T19:55:12.687Z,16.40
2018-09-22T19:57:41.589Z,16.20
2018-09-22T20:00:11.455Z,16.40
2018-09-22T20:02:48.545Z,16.20
2018-09-22T20:05:20.457Z,16.30
2018-09-22T20:07:49.638Z,16.30
2018-09-22T20:10:18.965Z,16.40
2018-09-22T20:12:48.406Z,16.40
2018-09-22T20:15:17.826Z,16.20
2018-09-22T20:17:46.811Z,16.20
2018-09-22T20:20:16.154Z,16.10
2018-09-22T20:22:45.602Z,16.00
2018-09-22T20:25:14.760Z,15.90
2018-09-22T20:27:43.801Z,15.80
2018-09-22T20:30:13.073Z,15.90
2018-09-22T20:32:42.357Z,15.90
2018-09-22T20:35:11.322Z,15.80
2018-09-22T20:37:40.648Z,15.80
2018-09-22T20:40:09.726Z,15.90
2018-09-22T20:42:38.715Z,15.80
2018-09-22T20:45:07.790Z,15.60
2018-09-22T20:47:36.823Z,15.70
2018-09-22T20:50:05.868Z,15.40
2018-09-22T20:52:34.839Z,15.40
2018-09-22T20:55:03.835Z,15.40
2018-09-22T20:57:33.124Z,15.40
2018-09-22T21:00:02.366Z,15.30
2018-09-22T21:02:31.603Z,15.00
2018-09-22T21:05:00.765Z,15.10
2018-09-22T21:07:30.005Z,15.20
2018-09-22T21:09:59.380Z,15.40
2018-09-22T21:12:28.671Z,15.40
2018-09-22T21:14:57.673Z,15.40
2018-09-22T21:17:26.786Z,15.40
2018-09-22T21:19:55.825Z,15.40
2018-09-22T21:22:28.952Z,15.40
2018-09-22T21:24:57.819Z,15.40
2018-09-22T21:27:27.117Z,15.40
2018-09-22T21:29:56.404Z,15.50
2018-09-22T21:32:25.489Z,15.30
2018-09-22T21:34:54.546Z,15.10
2018-09-22T21:37:23.815Z,15.20
2018-09-22T21:39:53.024Z,15.10
2018-09-22T21:42:22.378Z,15.00
2018-09-22T21:44:52.181Z,14.90
2018-09-22T21:47:21.665Z,14.90
2018-09-22T21:49:50.659Z,15.00
2018-09-22T21:52:19.622Z,15.00
2018-09-22T21:54:48.838Z,15.10
2018-09-22T21:57:18.040Z,15.20
2018-09-22T21:59:47.109Z,15.30
2018-09-22T22:02:16.167Z,15.20
2018-09-22T22:04:45.189Z,15.10
2018-09-22T22:07:14.266Z,15.10
2018-09-22T22:09:43.504Z,15.10
2018-09-22T22:12:13.033Z,15.00
2018-09-22T22:14:42.253Z,15.00
2018-09-22T22:17:11.385Z,15.00
2018-09-22T22:19:40.572Z,15.10
2018-09-22T22:22:09.462Z,15.00
2018-09-22T22:24:38.639Z,15.00
2018-09-22T22:27:07.819Z,15.10
2018-09-22T22:29:36.613Z,15.10
2018-09-22T22:32:05.595Z,15.20
2018-09-22T22:34:34.527Z,15.20
2018-09-22T22:37:03.622Z,15.20
2018-09-22T22:39:32.769Z,15.20
2018-09-22T22:42:01.573Z,15.20
2018-09-22T22:44:30.518Z,15.30
2018-09-22T22:46:59.669Z,15.20
2018-09-22T22:49:28.859Z,15.30
2018-09-22T22:51:58.233Z,15.30
2018-09-22T22:54:27.322Z,15.20
2018-09-22T22:56:56.587Z,15.20
2018-09-22T22:59:25.806Z,15.20
2018-09-22T23:01:55.135Z,15.20
2018-09-22T23:04:24.437Z,15.30
2018-09-22T23:06:53.597Z,15.20
2018-09-22T23:09:22.669Z,15.30
2018-09-22T23:11:51.738Z,15.30
2018-09-22T23:14:20.979Z,15.30
2018-09-22T23:16:49.821Z,15.30
2018-09-22T23:19:19.171Z,15.30
2018-09-22T23:21:48.410Z,15.40
2018-09-22T23:24:17.490Z,15.30
2018-09-22T23:26:46.713Z,15.30
2018-09-22T23:29:15.933Z,15.20
2018-09-22T23:31:45.073Z,15.10
2018-09-22T23:34:14.233Z,15.00
2018-09-22T23:36:43.462Z,15.00
2018-09-22T23:39:12.960Z,15.10
2018-09-22T23:41:42.894Z,15.10
2018-09-22T23:44:12.364Z,15.00
2018-09-22T23:46:41.268Z,15.00
2018-09-22T23:49:10.464Z,15.00
2018-09-22T23:51:39.541Z,15.00
2018-09-22T23:54:08.611Z,15.00
2018-09-22T23:56:37.981Z,15.10
2018-09-22T23:59:07.404Z,15.10
